createdAt,value
2022-08-23T00:04:50.838Z,1016.56
2022-08-23T00:09:36.151Z,1016.6
2022-08-23T00:14:28.713Z,1016.7
2022-08-23T00:19:21.398Z,1016.66
2022-08-23T00:24:14.190Z,1016.61
2022-08-23T00:29:06.862Z,1016.65
2022-08-23T00:33:59.640Z,1016.62
2022-08-23T00:38:52.191Z,1016.58
2022-08-23T00:43:45.079Z,1016.58
2022-08-23T00:48:37.740Z,1016.62
2022-08-23T00:53:30.515Z,1016.62
2022-08-23T00:58:23.252Z,1016.68
2022-08-23T01:03:15.831Z,1016.68
2022-08-23T01:08:08.457Z,1016.69
2022-08-23T01:13:01.178Z,1016.7
2022-08-23T01:17:53.819Z,1016.77
2022-08-23T01:22:46.481Z,1016.79
2022-08-23T01:27:39.173Z,1016.7
2022-08-23T01:32:31.818Z,1016.75
2022-08-23T01:37:24.584Z,1016.78
2022-08-23T01:42:17.259Z,1016.78
2022-08-23T01:52:02.722Z,1016.91
2022-08-23T02:01:48.013Z,1016.83
2022-08-23T02:11:33.322Z,1016.89
2022-08-23T02:16:26.174Z,1016.96
2022-08-23T02:21:18.884Z,1016.91
2022-08-23T02:26:11.552Z,1016.91
2022-08-23T02:31:04.492Z,1017.03
2022-08-23T02:35:57.220Z,1016.99
2022-08-23T02:40:52.860Z,1016.99
2022-08-23T02:45:42.660Z,1017
2022-08-23T02:50:35.092Z,1016.96
2022-08-23T02:55:27.882Z,1016.98
2022-08-23T03:00:20.537Z,1016.92
2022-08-23T03:05:13.114Z,1016.96
2022-08-23T03:10:05.656Z,1017
2022-08-23T03:14:58.555Z,1017.07
2022-08-23T03:19:51.261Z,1017.03
2022-08-23T03:24:43.905Z,1017.06
2022-08-23T03:29:36.876Z,1017.03
2022-08-23T03:34:29.471Z,1017.05
2022-08-23T03:39:21.713Z,1017.17
2022-08-23T03:44:14.379Z,1017.08
2022-08-23T03:49:06.929Z,1017.07
2022-08-23T03:53:59.634Z,1017.13
2022-08-23T03:58:52.338Z,1017.14
2022-08-23T04:03:45.082Z,1017.1
2022-08-23T04:08:37.709Z,1017.28
2022-08-23T04:13:30.300Z,1017.29
2022-08-23T04:18:23.083Z,1017.38
2022-08-23T04:23:15.917Z,1017.42
2022-08-23T04:28:08.271Z,1017.52
2022-08-23T04:33:01.586Z,1017.51
2022-08-23T04:37:53.546Z,1017.53
2022-08-23T04:42:46.250Z,1017.55
2022-08-23T04:47:38.940Z,1017.66
2022-08-23T04:52:31.084Z,1017.69
2022-08-23T04:57:23.012Z,1017.77
2022-08-23T05:02:15.174Z,1017.91
2022-08-23T05:07:07.689Z,1017.99
2022-08-23T05:12:00.294Z,1017.98
2022-08-23T05:16:52.820Z,1017.97
2022-08-23T05:21:45.364Z,1018.02
2022-08-23T05:26:38.010Z,1017.99
2022-08-23T05:31:30.946Z,1018.09
2022-08-23T05:36:23.479Z,1018.06
2022-08-23T05:41:16.305Z,1018.06
2022-08-23T05:46:12.844Z,1018.16
2022-08-23T05:51:00.789Z,1018.23
2022-08-23T05:55:53.038Z,1018.24
2022-08-23T06:00:45.853Z,1018.4
2022-08-23T06:05:38.948Z,1018.39
2022-08-23T06:10:31.380Z,1018.39
2022-08-23T06:15:22.553Z,1018.49
2022-08-23T06:20:15.438Z,1018.55
2022-08-23T06:25:09.739Z,1018.46
2022-08-23T06:30:01.202Z,1018.53
2022-08-23T06:34:54.352Z,1018.61
2022-08-23T06:39:45.749Z,1018.44
2022-08-23T06:44:37.780Z,1018.57
2022-08-23T06:49:30.102Z,1018.48
2022-08-23T06:54:22.392Z,1018.6
2022-08-23T06:59:15.570Z,1018.59
2022-08-23T07:04:07.941Z,1018.7
2022-08-23T07:09:00.073Z,1018.65
2022-08-23T07:13:52.428Z,1018.62
2022-08-23T07:18:45.334Z,1018.7
2022-08-23T07:23:37.430Z,1018.67
2022-08-23T07:28:30.474Z,1018.72
2022-08-23T07:33:23.814Z,1018.68
2022-08-23T07:38:15.885Z,1018.6
2022-08-23T07:48:01.186Z,1018.65
2022-08-23T07:57:46.362Z,1018.64
2022-08-23T08:07:35.458Z,1018.68
2022-08-23T08:12:25.345Z,1018.67
2022-08-23T08:17:17.994Z,1018.7
2022-08-23T08:22:10.743Z,1018.67
2022-08-23T08:27:03.697Z,1018.63
2022-08-23T08:31:56.330Z,1018.62
2022-08-23T08:36:49.010Z,1018.6
2022-08-23T08:41:41.490Z,1018.61
2022-08-23T08:46:34.250Z,1018.55
2022-08-23T08:51:26.952Z,1018.6
2022-08-23T08:56:19.667Z,1018.62
2022-08-23T09:01:12.233Z,1018.61
2022-08-23T09:06:05.173Z,1018.67
2022-08-23T09:10:58.152Z,1018.69
2022-08-23T09:15:50.876Z,1018.63
2022-08-23T09:20:43.976Z,1018.63
2022-08-23T09:25:36.314Z,1018.58
2022-08-23T09:30:28.919Z,1018.55
2022-08-23T09:35:21.558Z,1018.52
2022-08-23T09:40:14.533Z,1018.47
2022-08-23T09:45:07.186Z,1018.53
2022-08-23T09:49:59.992Z,1018.45
2022-08-23T09:54:52.903Z,1018.41
2022-08-23T09:59:45.504Z,1018.36
2022-08-23T10:04:38.417Z,1018.36
2022-08-23T10:09:31.099Z,1018.26
2022-08-23T10:14:24.399Z,1018.27
2022-08-23T10:19:16.464Z,1018.23
2022-08-23T10:24:09.345Z,1018.27
2022-08-23T10:29:02.014Z,1018.15
2022-08-23T10:33:54.955Z,1018.21
2022-08-23T10:38:51.699Z,1018.16
2022-08-23T10:43:43.421Z,1018.14
2022-08-23T10:48:36.097Z,1018.1
2022-08-23T10:53:29.088Z,1018.03
2022-08-23T10:58:21.763Z,1018.01
2022-08-23T11:03:14.518Z,1017.99
2022-08-23T11:08:07.199Z,1018.07
2022-08-23T11:13:00.051Z,1018.05
2022-08-23T11:17:53.055Z,1018.03
2022-08-23T11:22:45.890Z,1017.97
2022-08-23T11:27:38.339Z,1017.92
2022-08-23T11:32:31.268Z,1017.93
2022-08-23T11:37:24.068Z,1017.9
2022-08-23T11:42:16.739Z,1017.91
2022-08-23T11:47:09.581Z,1017.86
2022-08-23T11:52:02.296Z,1017.82
2022-08-23T11:56:55.086Z,1017.74
2022-08-23T12:01:47.840Z,1017.87
2022-08-23T12:06:40.655Z,1017.86
2022-08-23T12:11:33.031Z,1017.78
2022-08-23T12:16:25.732Z,1017.69
2022-08-23T12:21:18.319Z,1017.67
2022-08-23T12:26:10.903Z,1017.66
2022-08-23T12:31:07.685Z,1017.67
2022-08-23T12:35:55.895Z,1017.72
2022-08-23T12:40:48.840Z,1017.7
2022-08-23T12:45:41.493Z,1017.67
2022-08-23T12:50:34.189Z,1017.69
2022-08-23T12:55:27.029Z,1017.62
2022-08-23T13:00:19.794Z,1017.56
2022-08-23T13:05:13.576Z,1017.59
2022-08-23T13:10:05.078Z,1017.5
2022-08-23T13:14:58.147Z,1017.45
2022-08-23T13:19:50.835Z,1017.45
2022-08-23T13:24:43.493Z,1017.4
2022-08-23T13:29:36.371Z,1017.45
2022-08-23T13:34:29.102Z,1017.47
2022-08-23T13:39:22.000Z,1017.43
2022-08-23T13:44:19.011Z,1017.42
2022-08-23T13:49:07.490Z,1017.37
2022-08-23T13:54:00.093Z,1017.38
2022-08-23T13:58:52.826Z,1017.4
2022-08-23T14:03:45.706Z,1017.4
2022-08-23T14:08:38.069Z,1017.48
2022-08-23T14:13:31.180Z,1017.39
2022-08-23T14:18:23.824Z,1017.35
2022-08-23T14:23:16.578Z,1017.35
2022-08-23T14:28:09.452Z,1017.35
2022-08-23T14:33:02.079Z,1017.3
2022-08-23T14:38:03.649Z,1017.2
2022-08-23T14:42:47.540Z,1017.19
2022-08-23T14:47:40.306Z,1017.19
2022-08-23T14:52:33.031Z,1017.19
2022-08-23T14:57:25.842Z,1017.13
2022-08-23T15:02:18.559Z,1017.1
2022-08-23T15:07:19.246Z,1017.07
2022-08-23T15:16:56.699Z,1017.16
2022-08-23T15:21:49.421Z,1017.1
2022-08-23T15:26:42.268Z,1017.13
2022-08-23T15:31:35.181Z,1017.15
2022-08-23T15:36:27.762Z,1017.12
2022-08-23T15:41:20.632Z,1017.08
2022-08-23T15:51:06.101Z,1017.03
2022-08-23T15:56:02.319Z,1017.14
2022-08-23T16:00:51.683Z,1017.09
2022-08-23T16:05:44.272Z,1017.1
2022-08-23T16:10:37.110Z,1017.13
2022-08-23T16:15:29.884Z,1017.12
2022-08-23T16:20:22.593Z,1017.12
2022-08-23T16:25:15.335Z,1017.13
2022-08-23T16:30:08.237Z,1017.12
2022-08-23T16:35:01.025Z,1017.11
2022-08-23T16:39:53.842Z,1017.09
2022-08-23T16:44:45.849Z,1017.11
2022-08-23T16:49:38.794Z,1017.09
2022-08-23T16:54:31.585Z,1017.12
2022-08-23T16:59:24.384Z,1017.12
2022-08-23T17:04:17.143Z,1017.17
2022-08-23T17:09:09.992Z,1017.15
2022-08-23T17:14:05.153Z,1017.16
2022-08-23T17:18:55.274Z,1017.21
2022-08-23T17:23:47.901Z,1017.2
2022-08-23T17:28:40.889Z,1017.25
2022-08-23T17:33:33.652Z,1017.29
2022-08-23T17:38:26.271Z,1017.33
2022-08-23T17:43:19.186Z,1017.46
2022-08-23T17:48:11.847Z,1017.53
2022-08-23T17:53:04.590Z,1017.64
2022-08-23T17:57:58.110Z,1017.77
2022-08-23T18:02:50.184Z,1017.74
2022-08-23T18:07:43.037Z,1017.84
2022-08-23T18:12:35.756Z,1017.91
2022-08-23T18:17:28.399Z,1017.94
2022-08-23T18:22:21.130Z,1018.03
2022-08-23T18:27:13.823Z,1018.12
2022-08-23T18:32:06.574Z,1018.19
2022-08-23T18:36:59.115Z,1018.28
2022-08-23T18:41:51.858Z,1018.31
2022-08-23T18:46:44.846Z,1018.35
2022-08-23T18:51:37.501Z,1018.41
2022-08-23T18:56:30.303Z,1018.43
2022-08-23T19:01:23.191Z,1018.56
2022-08-23T19:06:15.836Z,1018.57
2022-08-23T19:11:08.414Z,1018.61
2022-08-23T19:16:01.320Z,1018.65
2022-08-23T19:20:53.926Z,1018.69
2022-08-23T19:25:46.620Z,1018.76
2022-08-23T19:30:40.530Z,1018.75
2022-08-23T19:35:32.333Z,1018.78
2022-08-23T19:40:24.979Z,1018.79
2022-08-23T19:45:17.649Z,1018.88
2022-08-23T19:50:10.416Z,1018.91
2022-08-23T19:55:05.437Z,1018.94
2022-08-23T19:59:55.654Z,1018.92
2022-08-23T20:04:48.580Z,1019.02
2022-08-23T20:09:41.408Z,1019.03
2022-08-23T20:14:34.324Z,1019.01
2022-08-23T20:19:26.979Z,1019.02
2022-08-23T20:24:28.905Z,1019.03
2022-08-23T20:29:12.003Z,1018.96
2022-08-23T20:34:04.701Z,1018.98
2022-08-23T20:38:57.363Z,1018.99
2022-08-23T20:48:43.279Z,1019.06
2022-08-23T20:58:27.922Z,1019.11
2022-08-23T21:08:13.467Z,1019.04
2022-08-23T21:17:58.941Z,1019.17
2022-08-23T21:22:51.805Z,1019.19
2022-08-23T21:27:44.376Z,1019.22
2022-08-23T21:32:37.036Z,1019.22
2022-08-23T21:37:29.757Z,1019.22
2022-08-23T21:42:23.786Z,1019.18
2022-08-23T21:47:15.280Z,1019.2
2022-08-23T21:52:08.009Z,1019.2
2022-08-23T21:56:54.569Z,1019.27
2022-08-23T22:01:51.564Z,1019.31
2022-08-23T22:06:44.226Z,1019.34
2022-08-23T22:11:36.992Z,1019.24
2022-08-23T22:16:29.556Z,1019.29
2022-08-23T22:21:22.243Z,1019.23
2022-08-23T22:26:15.036Z,1019.29
2022-08-23T22:31:07.655Z,1019.34
2022-08-23T22:36:00.168Z,1019.31
2022-08-23T22:40:52.888Z,1019.25
2022-08-23T22:45:45.689Z,1019.31
2022-08-23T22:50:38.099Z,1019.26
2022-08-23T22:55:30.750Z,1019.25
2022-08-23T23:00:23.541Z,1019.23
2022-08-23T23:05:16.171Z,1019.21
2022-08-23T23:10:08.840Z,1019.22
2022-08-23T23:15:01.593Z,1019.17
2022-08-23T23:19:54.059Z,1019.1
2022-08-23T23:24:46.708Z,1019.11
2022-08-23T23:29:39.469Z,1019.14
2022-08-23T23:34:31.968Z,1019.16
2022-08-23T23:39:24.626Z,1019.1
2022-08-23T23:44:17.398Z,1019.06
2022-08-23T23:49:10.046Z,1018.99
2022-08-23T23:54:02.643Z,1018.98
2022-08-23T23:58:55.504Z,1019.01
